sensor_id;sensor_type;location;lat;lon;timestamp;P1;durP1;ratioP1;P2;durP2;ratioP2
47337;SDS011;33069;51.970;5.892;2023-04-25T00:01:40;21.13;;;6.43;;
47337;SDS011;33069;51.970;5.892;2023-04-25T00:04:15;25.15;;;7.35;;
47337;SDS011;33069;51.970;5.892;2023-04-25T00:06:40;19.00;;;6.35;;
47337;SDS011;33069;51.970;5.892;2023-04-25T00:09:15;21.15;;;5.80;;
47337;SDS011;33069;51.970;5.892;2023-04-25T00:11:41;27.35;;;7.28;;
47337;SDS011;33069;51.970;5.892;2023-04-25T00:14:12;25.15;;;6.30;;
47337;SDS011;33069;51.970;5.892;2023-04-25T00:16:38;26.13;;;6.35;;
47337;SDS011;33069;51.970;5.892;2023-04-25T00:19:12;22.80;;;6.93;;
47337;SDS011;33069;51.970;5.892;2023-04-25T00:21:38;26.70;;;6.60;;
47337;SDS011;33069;51.970;5.892;2023-04-25T00:24:14;21.27;;;6.38;;
47337;SDS011;33069;51.970;5.892;2023-04-25T00:26:40;31.77;;;7.63;;
47337;SDS011;33069;51.970;5.892;2023-04-25T00:29:14;26.50;;;8.00;;
47337;SDS011;33069;51.970;5.892;2023-04-25T00:31:40;31.17;;;7.30;;
47337;SDS011;33069;51.970;5.892;2023-04-25T00:34:12;29.52;;;8.13;;
47337;SDS011;33069;51.970;5.892;2023-04-25T00:36:37;32.38;;;7.50;;
47337;SDS011;33069;51.970;5.892;2023-04-25T00:39:15;23.98;;;7.82;;
47337;SDS011;33069;51.970;5.892;2023-04-25T00:41:40;34.95;;;8.10;;
47337;SDS011;33069;51.970;5.892;2023-04-25T00:44:15;27.27;;;7.93;;
47337;SDS011;33069;51.970;5.892;2023-04-25T00:46:42;24.13;;;8.65;;
47337;SDS011;33069;51.970;5.892;2023-04-25T00:49:13;34.92;;;8.20;;
47337;SDS011;33069;51.970;5.892;2023-04-25T00:51:41;38.72;;;9.65;;
47337;SDS011;33069;51.970;5.892;2023-04-25T00:54:12;30.38;;;8.82;;
47337;SDS011;33069;51.970;5.892;2023-04-25T00:56:39;33.08;;;9.95;;
47337;SDS011;33069;51.970;5.892;2023-04-25T00:59:14;29.17;;;9.45;;
47337;SDS011;33069;51.970;5.892;2023-04-25T01:01:40;30.70;;;8.80;;
47337;SDS011;33069;51.970;5.892;2023-04-25T01:04:13;32.35;;;10.55;;
47337;SDS011;33069;51.970;5.892;2023-04-25T01:06:38;33.22;;;11.07;;
47337;SDS011;33069;51.970;5.892;2023-04-25T01:09:14;34.67;;;10.25;;
47337;SDS011;33069;51.970;5.892;2023-04-25T01:11:41;41.08;;;10.20;;
47337;SDS011;33069;51.970;5.892;2023-04-25T01:14:13;34.28;;;9.02;;
47337;SDS011;33069;51.970;5.892;2023-04-25T01:16:39;36.45;;;10.95;;
47337;SDS011;33069;51.970;5.892;2023-04-25T01:19:12;36.13;;;10.13;;
47337;SDS011;33069;51.970;5.892;2023-04-25T01:21:41;41.10;;;10.80;;
47337;SDS011;33069;51.970;5.892;2023-04-25T01:24:12;31.05;;;10.00;;
47337;SDS011;33069;51.970;5.892;2023-04-25T01:26:38;39.75;;;11.30;;
47337;SDS011;33069;51.970;5.892;2023-04-25T01:29:12;34.40;;;10.50;;
47337;SDS011;33069;51.970;5.892;2023-04-25T01:31:38;38.60;;;10.60;;
47337;SDS011;33069;51.970;5.892;2023-04-25T01:34:13;25.90;;;9.25;;
47337;SDS011;33069;51.970;5.892;2023-04-25T01:36:39;29.70;;;9.85;;
47337;SDS011;33069;51.970;5.892;2023-04-25T01:39:14;39.03;;;10.00;;
47337;SDS011;33069;51.970;5.892;2023-04-25T01:41:40;35.00;;;10.50;;
47337;SDS011;33069;51.970;5.892;2023-04-25T01:44:12;33.22;;;10.45;;
47337;SDS011;33069;51.970;5.892;2023-04-25T01:46:38;40.83;;;13.38;;
47337;SDS011;33069;51.970;5.892;2023-04-25T01:49:12;30.75;;;9.07;;
47337;SDS011;33069;51.970;5.892;2023-04-25T01:51:38;35.10;;;9.88;;
47337;SDS011;33069;51.970;5.892;2023-04-25T01:57:16;25.35;;;9.07;;
47337;SDS011;33069;51.970;5.892;2023-04-25T01:59:42;33.10;;;9.23;;
47337;SDS011;33069;51.970;5.892;2023-04-25T02:02:08;32.85;;;8.45;;
47337;SDS011;33069;51.970;5.892;2023-04-25T02:04:40;32.92;;;9.32;;
47337;SDS011;33069;51.970;5.892;2023-04-25T02:07:06;26.27;;;8.48;;
47337;SDS011;33069;51.970;5.892;2023-04-25T02:09:32;30.42;;;9.70;;
47337;SDS011;33069;51.970;5.892;2023-04-25T02:11:57;35.05;;;8.85;;
47337;SDS011;33069;51.970;5.892;2023-04-25T02:14:23;29.02;;;7.90;;
47337;SDS011;33069;51.970;5.892;2023-04-25T02:16:52;31.45;;;7.90;;
47337;SDS011;33069;51.970;5.892;2023-04-25T02:19:23;21.17;;;6.78;;
47337;SDS011;33069;51.970;5.892;2023-04-25T02:21:49;35.58;;;7.30;;
47337;SDS011;33069;51.970;5.892;2023-04-25T02:24:15;24.52;;;7.28;;
47337;SDS011;33069;51.970;5.892;2023-04-25T02:26:41;30.52;;;7.40;;
47337;SDS011;33069;51.970;5.892;2023-04-25T02:29:12;30.90;;;7.35;;
47337;SDS011;33069;51.970;5.892;2023-04-25T02:31:40;31.73;;;7.57;;
47337;SDS011;33069;51.970;5.892;2023-04-25T02:34:11;26.02;;;7.45;;
47337;SDS011;33069;51.970;5.892;2023-04-25T02:36:37;27.40;;;7.25;;
47337;SDS011;33069;51.970;5.892;2023-04-25T02:39:11;32.00;;;7.10;;
47337;SDS011;33069;51.970;5.892;2023-04-25T02:41:37;26.17;;;8.38;;
47337;SDS011;33069;51.970;5.892;2023-04-25T02:44:11;32.22;;;7.57;;
47337;SDS011;33069;51.970;5.892;2023-04-25T02:46:38;35.47;;;8.10;;
47337;SDS011;33069;51.970;5.892;2023-04-25T02:49:12;30.48;;;7.38;;
47337;SDS011;33069;51.970;5.892;2023-04-25T02:51:38;27.38;;;7.40;;
47337;SDS011;33069;51.970;5.892;2023-04-25T02:54:16;24.35;;;6.43;;
47337;SDS011;33069;51.970;5.892;2023-04-25T02:56:41;29.75;;;7.15;;
47337;SDS011;33069;51.970;5.892;2023-04-25T02:59:15;30.33;;;6.00;;
47337;SDS011;33069;51.970;5.892;2023-04-25T03:01:41;25.50;;;7.15;;
47337;SDS011;33069;51.970;5.892;2023-04-25T03:04:10;24.08;;;7.13;;
47337;SDS011;33069;51.970;5.892;2023-04-25T03:06:35;27.63;;;7.32;;
47337;SDS011;33069;51.970;5.892;2023-04-25T03:11:36;27.73;;;6.90;;
47337;SDS011;33069;51.970;5.892;2023-04-25T03:14:15;26.45;;;7.95;;
47337;SDS011;33069;51.970;5.892;2023-04-25T03:16:41;34.03;;;6.65;;
47337;SDS011;33069;51.970;5.892;2023-04-25T03:19:13;22.42;;;6.82;;
47337;SDS011;33069;51.970;5.892;2023-04-25T03:21:41;34.75;;;7.95;;
47337;SDS011;33069;51.970;5.892;2023-04-25T03:24:18;30.92;;;7.35;;
47337;SDS011;33069;51.970;5.892;2023-04-25T03:26:44;27.27;;;6.88;;
47337;SDS011;33069;51.970;5.892;2023-04-25T03:29:10;25.23;;;7.07;;
47337;SDS011;33069;51.970;5.892;2023-04-25T03:31:36;28.65;;;5.78;;
47337;SDS011;33069;51.970;5.892;2023-04-25T03:34:11;24.88;;;6.40;;
47337;SDS011;33069;51.970;5.892;2023-04-25T03:36:36;27.00;;;6.82;;
47337;SDS011;33069;51.970;5.892;2023-04-25T03:39:11;25.15;;;8.20;;
47337;SDS011;33069;51.970;5.892;2023-04-25T03:41:36;30.90;;;7.93;;
47337;SDS011;33069;51.970;5.892;2023-04-25T03:44:14;32.60;;;7.57;;
47337;SDS011;33069;51.970;5.892;2023-04-25T03:46:40;33.90;;;7.68;;
47337;SDS011;33069;51.970;5.892;2023-04-25T03:49:14;30.58;;;7.15;;
47337;SDS011;33069;51.970;5.892;2023-04-25T03:51:41;24.02;;;6.80;;
47337;SDS011;33069;51.970;5.892;2023-04-25T03:54:15;23.65;;;7.85;;
47337;SDS011;33069;51.970;5.892;2023-04-25T03:56:41;34.35;;;8.13;;
47337;SDS011;33069;51.970;5.892;2023-04-25T03:59:09;37.13;;;7.55;;
47337;SDS011;33069;51.970;5.892;2023-04-25T04:01:35;22.38;;;6.97;;
47337;SDS011;33069;51.970;5.892;2023-04-25T04:04:14;30.88;;;8.75;;
47337;SDS011;33069;51.970;5.892;2023-04-25T04:06:39;32.50;;;7.40;;
47337;SDS011;33069;51.970;5.892;2023-04-25T04:09:11;23.52;;;7.22;;
47337;SDS011;33069;51.970;5.892;2023-04-25T04:11:38;28.35;;;8.00;;
47337;SDS011;33069;51.970;5.892;2023-04-25T04:14:16;19.08;;;7.10;;
47337;SDS011;33069;51.970;5.892;2023-04-25T04:16:41;24.77;;;7.80;;
47337;SDS011;33069;51.970;5.892;2023-04-25T04:19:14;28.83;;;7.72;;
47337;SDS011;33069;51.970;5.892;2023-04-25T04:21:40;29.58;;;8.52;;
47337;SDS011;33069;51.970;5.892;2023-04-25T04:24:15;28.85;;;8.10;;
47337;SDS011;33069;51.970;5.892;2023-04-25T04:26:41;25.73;;;7.45;;
47337;SDS011;33069;51.970;5.892;2023-04-25T04:29:12;21.92;;;8.52;;
47337;SDS011;33069;51.970;5.892;2023-04-25T04:31:45;34.38;;;10.95;;
47337;SDS011;33069;51.970;5.892;2023-04-25T04:34:12;28.67;;;9.07;;
47337;SDS011;33069;51.970;5.892;2023-04-25T04:36:38;43.35;;;10.00;;
47337;SDS011;33069;51.970;5.892;2023-04-25T04:39:13;28.25;;;8.82;;
47337;SDS011;33069;51.970;5.892;2023-04-25T04:41:39;25.20;;;8.30;;
47337;SDS011;33069;51.970;5.892;2023-04-25T04:44:14;31.05;;;8.18;;
47337;SDS011;33069;51.970;5.892;2023-04-25T04:46:40;32.92;;;8.63;;
47337;SDS011;33069;51.970;5.892;2023-04-25T04:49:12;32.15;;;8.35;;
47337;SDS011;33069;51.970;5.892;2023-04-25T04:51:40;30.88;;;8.32;;
47337;SDS011;33069;51.970;5.892;2023-04-25T04:54:12;22.70;;;8.20;;
47337;SDS011;33069;51.970;5.892;2023-04-25T04:56:38;30.55;;;7.43;;
47337;SDS011;33069;51.970;5.892;2023-04-25T04:59:13;21.45;;;5.97;;
47337;SDS011;33069;51.970;5.892;2023-04-25T05:01:38;29.40;;;8.00;;
47337;SDS011;33069;51.970;5.892;2023-04-25T05:04:12;37.88;;;7.88;;
47337;SDS011;33069;51.970;5.892;2023-04-25T05:06:38;29.85;;;6.97;;
47337;SDS011;33069;51.970;5.892;2023-04-25T05:09:04;30.90;;;9.43;;
47337;SDS011;33069;51.970;5.892;2023-04-25T05:11:30;26.55;;;6.57;;
47337;SDS011;33069;51.970;5.892;2023-04-25T05:13:55;24.17;;;7.18;;
47337;SDS011;33069;51.970;5.892;2023-04-25T05:16:21;27.42;;;6.68;;
47337;SDS011;33069;51.970;5.892;2023-04-25T05:18:47;20.73;;;6.32;;
47337;SDS011;33069;51.970;5.892;2023-04-25T05:21:13;26.15;;;7.38;;
47337;SDS011;33069;51.970;5.892;2023-04-25T05:23:38;25.20;;;7.85;;
47337;SDS011;33069;51.970;5.892;2023-04-25T05:26:04;22.02;;;6.43;;
47337;SDS011;33069;51.970;5.892;2023-04-25T05:28:30;28.40;;;8.15;;
47337;SDS011;33069;51.970;5.892;2023-04-25T05:30:56;20.45;;;7.78;;
47337;SDS011;33069;51.970;5.892;2023-04-25T05:33:22;25.13;;;7.57;;
47337;SDS011;33069;51.970;5.892;2023-04-25T05:35:48;27.48;;;7.57;;
47337;SDS011;33069;51.970;5.892;2023-04-25T05:38:14;24.95;;;6.97;;
47337;SDS011;33069;51.970;5.892;2023-04-25T05:40:39;28.98;;;7.10;;
47337;SDS011;33069;51.970;5.892;2023-04-25T05:43:05;19.48;;;7.40;;
47337;SDS011;33069;51.970;5.892;2023-04-25T05:45:32;23.92;;;6.57;;
47337;SDS011;33069;51.970;5.892;2023-04-25T05:47:58;34.42;;;7.70;;
47337;SDS011;33069;51.970;5.892;2023-04-25T05:50:23;27.88;;;6.57;;
47337;SDS011;33069;51.970;5.892;2023-04-25T05:52:49;17.98;;;6.63;;
47337;SDS011;33069;51.970;5.892;2023-04-25T05:55:15;13.93;;;5.70;;
47337;SDS011;33069;51.970;5.892;2023-04-25T05:57:41;20.35;;;5.90;;
47337;SDS011;33069;51.970;5.892;2023-04-25T06:00:08;22.85;;;6.28;;
47337;SDS011;33069;51.970;5.892;2023-04-25T06:02:34;22.70;;;5.60;;
47337;SDS011;33069;51.970;5.892;2023-04-25T06:05:00;16.38;;;4.88;;
47337;SDS011;33069;51.970;5.892;2023-04-25T06:07:28;16.80;;;6.07;;
47337;SDS011;33069;51.970;5.892;2023-04-25T06:09:55;24.77;;;5.50;;
47337;SDS011;33069;51.970;5.892;2023-04-25T06:12:21;18.58;;;5.78;;
47337;SDS011;33069;51.970;5.892;2023-04-25T06:14:46;15.98;;;5.53;;
47337;SDS011;33069;51.970;5.892;2023-04-25T06:17:12;24.15;;;6.63;;
47337;SDS011;33069;51.970;5.892;2023-04-25T06:19:38;19.98;;;5.65;;
47337;SDS011;33069;51.970;5.892;2023-04-25T06:22:04;21.80;;;7.03;;
47337;SDS011;33069;51.970;5.892;2023-04-25T06:24:30;19.73;;;5.63;;
47337;SDS011;33069;51.970;5.892;2023-04-25T06:26:55;17.77;;;6.28;;
47337;SDS011;33069;51.970;5.892;2023-04-25T06:29:21;17.27;;;6.10;;
47337;SDS011;33069;51.970;5.892;2023-04-25T06:31:47;23.52;;;6.13;;
47337;SDS011;33069;51.970;5.892;2023-04-25T06:34:13;21.25;;;8.07;;
47337;SDS011;33069;51.970;5.892;2023-04-25T06:36:38;25.70;;;6.32;;
47337;SDS011;33069;51.970;5.892;2023-04-25T06:39:04;19.95;;;5.78;;
47337;SDS011;33069;51.970;5.892;2023-04-25T06:41:30;22.67;;;5.97;;
47337;SDS011;33069;51.970;5.892;2023-04-25T06:43:55;22.17;;;5.97;;
47337;SDS011;33069;51.970;5.892;2023-04-25T06:46:21;22.35;;;6.22;;
47337;SDS011;33069;51.970;5.892;2023-04-25T06:48:47;15.82;;;5.50;;
47337;SDS011;33069;51.970;5.892;2023-04-25T06:51:12;21.65;;;5.50;;
47337;SDS011;33069;51.970;5.892;2023-04-25T06:53:38;18.58;;;5.38;;
47337;SDS011;33069;51.970;5.892;2023-04-25T06:56:07;19.25;;;5.30;;
47337;SDS011;33069;51.970;5.892;2023-04-25T06:58:33;20.25;;;5.85;;
47337;SDS011;33069;51.970;5.892;2023-04-25T07:00:58;13.57;;;5.13;;
47337;SDS011;33069;51.970;5.892;2023-04-25T07:03:24;19.35;;;6.15;;
47337;SDS011;33069;51.970;5.892;2023-04-25T07:05:50;17.83;;;5.80;;
47337;SDS011;33069;51.970;5.892;2023-04-25T07:08:16;15.35;;;5.60;;
47337;SDS011;33069;51.970;5.892;2023-04-25T07:10:42;21.30;;;5.60;;
47337;SDS011;33069;51.970;5.892;2023-04-25T07:13:07;19.50;;;5.95;;
47337;SDS011;33069;51.970;5.892;2023-04-25T07:15:33;16.20;;;4.65;;
47337;SDS011;33069;51.970;5.892;2023-04-25T07:17:59;17.13;;;4.95;;
47337;SDS011;33069;51.970;5.892;2023-04-25T07:20:25;19.08;;;4.90;;
47337;SDS011;33069;51.970;5.892;2023-04-25T07:22:52;15.65;;;4.47;;
47337;SDS011;33069;51.970;5.892;2023-04-25T07:25:18;13.68;;;4.30;;
47337;SDS011;33069;51.970;5.892;2023-04-25T07:27:45;15.15;;;4.03;;
47337;SDS011;33069;51.970;5.892;2023-04-25T07:30:11;14.63;;;5.10;;
47337;SDS011;33069;51.970;5.892;2023-04-25T07:32:37;13.88;;;4.00;;
47337;SDS011;33069;51.970;5.892;2023-04-25T07:35:04;13.52;;;4.95;;
47337;SDS011;33069;51.970;5.892;2023-04-25T07:37:31;13.52;;;3.88;;
47337;SDS011;33069;51.970;5.892;2023-04-25T07:39:58;19.00;;;4.10;;
47337;SDS011;33069;51.970;5.892;2023-04-25T07:42:23;16.58;;;4.35;;
47337;SDS011;33069;51.970;5.892;2023-04-25T07:44:49;15.82;;;5.20;;
47337;SDS011;33069;51.970;5.892;2023-04-25T07:47:16;12.80;;;5.47;;
47337;SDS011;33069;51.970;5.892;2023-04-25T07:49:44;17.40;;;4.40;;
47337;SDS011;33069;51.970;5.892;2023-04-25T07:52:10;16.58;;;4.18;;
47337;SDS011;33069;51.970;5.892;2023-04-25T07:54:36;11.45;;;4.20;;
47337;SDS011;33069;51.970;5.892;2023-04-25T07:57:02;10.25;;;4.25;;
47337;SDS011;33069;51.970;5.892;2023-04-25T07:59:28;16.30;;;4.85;;
47337;SDS011;33069;51.970;5.892;2023-04-25T08:01:54;15.80;;;4.70;;
47337;SDS011;33069;51.970;5.892;2023-04-25T08:04:21;11.73;;;4.15;;
47337;SDS011;33069;51.970;5.892;2023-04-25T08:06:47;10.50;;;4.70;;
47337;SDS011;33069;51.970;5.892;2023-04-25T08:09:13;14.43;;;4.47;;
47337;SDS011;33069;51.970;5.892;2023-04-25T08:11:40;15.40;;;7.63;;
47337;SDS011;33069;51.970;5.892;2023-04-25T08:14:06;16.42;;;4.45;;
47337;SDS011;33069;51.970;5.892;2023-04-25T08:16:32;10.35;;;4.38;;
47337;SDS011;33069;51.970;5.892;2023-04-25T08:18:58;8.02;;;3.40;;
47337;SDS011;33069;51.970;5.892;2023-04-25T08:21:25;10.13;;;4.78;;
47337;SDS011;33069;51.970;5.892;2023-04-25T08:23:52;14.43;;;5.18;;
47337;SDS011;33069;51.970;5.892;2023-04-25T08:26:18;17.42;;;4.47;;
47337;SDS011;33069;51.970;5.892;2023-04-25T08:28:44;15.65;;;4.80;;
47337;SDS011;33069;51.970;5.892;2023-04-25T08:31:09;13.70;;;4.57;;
47337;SDS011;33069;51.970;5.892;2023-04-25T08:33:35;16.13;;;5.57;;
47337;SDS011;33069;51.970;5.892;2023-04-25T08:36:01;12.85;;;4.60;;
47337;SDS011;33069;51.970;5.892;2023-04-25T08:38:27;8.63;;;4.70;;
47337;SDS011;33069;51.970;5.892;2023-04-25T08:40:53;14.27;;;5.32;;
47337;SDS011;33069;51.970;5.892;2023-04-25T08:43:20;14.40;;;5.80;;
47337;SDS011;33069;51.970;5.892;2023-04-25T08:45:46;9.68;;;5.45;;
47337;SDS011;33069;51.970;5.892;2023-04-25T08:48:13;11.10;;;6.00;;
47337;SDS011;33069;51.970;5.892;2023-04-25T08:50:51;18.02;;;13.27;;
47337;SDS011;33069;51.970;5.892;2023-04-25T08:53:25;12.50;;;5.70;;
47337;SDS011;33069;51.970;5.892;2023-04-25T08:55:57;11.27;;;5.32;;
47337;SDS011;33069;51.970;5.892;2023-04-25T08:58:24;14.20;;;5.85;;
47337;SDS011;33069;51.970;5.892;2023-04-25T09:00:50;19.60;;;5.50;;
47337;SDS011;33069;51.970;5.892;2023-04-25T09:03:17;8.93;;;4.95;;
47337;SDS011;33069;51.970;5.892;2023-04-25T09:05:43;9.27;;;5.80;;
47337;SDS011;33069;51.970;5.892;2023-04-25T09:08:09;18.20;;;10.18;;
47337;SDS011;33069;51.970;5.892;2023-04-25T09:10:35;11.95;;;5.40;;
47337;SDS011;33069;51.970;5.892;2023-04-25T09:13:02;14.35;;;5.78;;
47337;SDS011;33069;51.970;5.892;2023-04-25T09:15:56;9.73;;;6.65;;
47337;SDS011;33069;51.970;5.892;2023-04-25T09:20:51;10.90;;;3.90;;
47337;SDS011;33069;51.970;5.892;2023-04-25T09:23:18;10.13;;;4.28;;
47337;SDS011;33069;51.970;5.892;2023-04-25T09:25:47;13.93;;;4.60;;
47337;SDS011;33069;51.970;5.892;2023-04-25T09:28:22;14.27;;;4.20;;
47337;SDS011;33069;51.970;5.892;2023-04-25T09:30:56;10.30;;;4.05;;
47337;SDS011;33069;51.970;5.892;2023-04-25T09:33:28;11.32;;;3.85;;
47337;SDS011;33069;51.970;5.892;2023-04-25T09:36:01;13.57;;;4.50;;
47337;SDS011;33069;51.970;5.892;2023-04-25T09:38:32;10.48;;;4.70;;
47337;SDS011;33069;51.970;5.892;2023-04-25T09:41:05;11.07;;;4.17;;
47337;SDS011;33069;51.970;5.892;2023-04-25T09:43:31;8.43;;;4.90;;
47337;SDS011;33069;51.970;5.892;2023-04-25T09:45:57;9.48;;;4.82;;
47337;SDS011;33069;51.970;5.892;2023-04-25T09:48:26;15.38;;;4.78;;
47337;SDS011;33069;51.970;5.892;2023-04-25T09:51:05;9.32;;;4.45;;
47337;SDS011;33069;51.970;5.892;2023-04-25T09:53:42;9.23;;;3.92;;
47337;SDS011;33069;51.970;5.892;2023-04-25T09:56:09;8.13;;;6.18;;
47337;SDS011;33069;51.970;5.892;2023-04-25T09:58:36;9.07;;;4.63;;
47337;SDS011;33069;51.970;5.892;2023-04-25T10:01:04;11.85;;;4.65;;
47337;SDS011;33069;51.970;5.892;2023-04-25T10:03:32;8.18;;;4.25;;
47337;SDS011;33069;51.970;5.892;2023-04-25T10:06:00;6.88;;;4.40;;
47337;SDS011;33069;51.970;5.892;2023-04-25T10:08:36;12.65;;;5.45;;
47337;SDS011;33069;51.970;5.892;2023-04-25T10:11:03;12.95;;;4.60;;
47337;SDS011;33069;51.970;5.892;2023-04-25T10:13:31;11.18;;;4.50;;
47337;SDS011;33069;51.970;5.892;2023-04-25T10:15:58;10.05;;;4.75;;
47337;SDS011;33069;51.970;5.892;2023-04-25T10:18:25;10.93;;;4.72;;
47337;SDS011;33069;51.970;5.892;2023-04-25T10:20:53;9.40;;;4.85;;
47337;SDS011;33069;51.970;5.892;2023-04-25T10:23:26;9.40;;;3.97;;
47337;SDS011;33069;51.970;5.892;2023-04-25T10:25:54;14.00;;;3.80;;
47337;SDS011;33069;51.970;5.892;2023-04-25T10:28:20;7.15;;;4.22;;
47337;SDS011;33069;51.970;5.892;2023-04-25T10:31:07;6.88;;;4.82;;
47337;SDS011;33069;51.970;5.892;2023-04-25T10:33:37;10.18;;;3.83;;
47337;SDS011;33069;51.970;5.892;2023-04-25T10:36:12;10.73;;;4.28;;
47337;SDS011;33069;51.970;5.892;2023-04-25T10:38:47;6.43;;;3.63;;
47337;SDS011;33069;51.970;5.892;2023-04-25T10:41:15;14.57;;;6.45;;
47337;SDS011;33069;51.970;5.892;2023-04-25T10:43:44;10.23;;;4.70;;
47337;SDS011;33069;51.970;5.892;2023-04-25T10:46:29;13.43;;;7.72;;
47337;SDS011;33069;51.970;5.892;2023-04-25T10:48:58;30.05;;;28.08;;
47337;SDS011;33069;51.970;5.892;2023-04-25T10:54:04;12.30;;;11.07;;
47337;SDS011;33069;51.970;5.892;2023-04-25T10:59:11;11.50;;;3.05;;
47337;SDS011;33069;51.970;5.892;2023-04-25T11:01:47;9.05;;;4.35;;
47337;SDS011;33069;51.970;5.892;2023-04-25T11:04:26;10.17;;;3.50;;
47337;SDS011;33069;51.970;5.892;2023-04-25T11:09:43;8.45;;;3.60;;
47337;SDS011;33069;51.970;5.892;2023-04-25T11:12:10;14.82;;;3.80;;
47337;SDS011;33069;51.970;5.892;2023-04-25T11:14:37;10.20;;;3.33;;
47337;SDS011;33069;51.970;5.892;2023-04-25T11:17:03;11.57;;;3.78;;
47337;SDS011;33069;51.970;5.892;2023-04-25T11:19:29;8.77;;;4.80;;
47337;SDS011;33069;51.970;5.892;2023-04-25T11:21:55;10.30;;;4.88;;
47337;SDS011;33069;51.970;5.892;2023-04-25T11:24:27;6.32;;;3.35;;
47337;SDS011;33069;51.970;5.892;2023-04-25T11:26:57;8.80;;;5.80;;
47337;SDS011;33069;51.970;5.892;2023-04-25T11:29:27;7.05;;;3.45;;
47337;SDS011;33069;51.970;5.892;2023-04-25T11:31:54;8.90;;;3.30;;
47337;SDS011;33069;51.970;5.892;2023-04-25T11:34:27;10.77;;;4.10;;
47337;SDS011;33069;51.970;5.892;2023-04-25T11:36:55;6.25;;;3.42;;
47337;SDS011;33069;51.970;5.892;2023-04-25T11:39:21;7.65;;;3.78;;
47337;SDS011;33069;51.970;5.892;2023-04-25T11:41:49;5.55;;;3.38;;
47337;SDS011;33069;51.970;5.892;2023-04-25T11:44:16;7.38;;;3.50;;
47337;SDS011;33069;51.970;5.892;2023-04-25T11:46:43;8.50;;;3.38;;
47337;SDS011;33069;51.970;5.892;2023-04-25T11:49:09;6.22;;;4.22;;
47337;SDS011;33069;51.970;5.892;2023-04-25T11:51:44;10.93;;;4.85;;
47337;SDS011;33069;51.970;5.892;2023-04-25T11:54:11;9.02;;;4.45;;
47337;SDS011;33069;51.970;5.892;2023-04-25T11:56:37;8.43;;;4.43;;
47337;SDS011;33069;51.970;5.892;2023-04-25T11:59:06;15.93;;;6.55;;
47337;SDS011;33069;51.970;5.892;2023-04-25T12:01:32;7.72;;;3.63;;
47337;SDS011;33069;51.970;5.892;2023-04-25T12:04:17;7.07;;;3.10;;
47337;SDS011;33069;51.970;5.892;2023-04-25T12:06:44;6.90;;;3.88;;
47337;SDS011;33069;51.970;5.892;2023-04-25T12:09:13;8.32;;;4.85;;
47337;SDS011;33069;51.970;5.892;2023-04-25T12:11:44;22.30;;;5.85;;
47337;SDS011;33069;51.970;5.892;2023-04-25T12:14:11;13.88;;;5.75;;
47337;SDS011;33069;51.970;5.892;2023-04-25T12:16:41;7.97;;;5.95;;
47337;SDS011;33069;51.970;5.892;2023-04-25T12:19:14;5.93;;;4.57;;
47337;SDS011;33069;51.970;5.892;2023-04-25T12:21:42;8.13;;;5.80;;
47337;SDS011;33069;51.970;5.892;2023-04-25T12:24:09;9.50;;;8.60;;
47337;SDS011;33069;51.970;5.892;2023-04-25T12:29:19;6.40;;;4.57;;
47337;SDS011;33069;51.970;5.892;2023-04-25T12:34:13;8.10;;;4.10;;
47337;SDS011;33069;51.970;5.892;2023-04-25T12:36:39;4.95;;;3.95;;
47337;SDS011;33069;51.970;5.892;2023-04-25T12:39:05;9.73;;;4.20;;
47337;SDS011;33069;51.970;5.892;2023-04-25T12:41:31;9.70;;;4.00;;
47337;SDS011;33069;51.970;5.892;2023-04-25T12:43:57;8.05;;;4.38;;
47337;SDS011;33069;51.970;5.892;2023-04-25T12:46:23;9.65;;;4.55;;
47337;SDS011;33069;51.970;5.892;2023-04-25T12:48:49;10.55;;;4.80;;
47337;SDS011;33069;51.970;5.892;2023-04-25T12:58:33;10.52;;;7.95;;
47337;SDS011;33069;51.970;5.892;2023-04-25T13:00:58;10.70;;;4.63;;
47337;SDS011;33069;51.970;5.892;2023-04-25T13:03:24;13.77;;;5.68;;
47337;SDS011;33069;51.970;5.892;2023-04-25T13:05:50;13.88;;;5.13;;
47337;SDS011;33069;51.970;5.892;2023-04-25T13:08:20;12.65;;;4.60;;
47337;SDS011;33069;51.970;5.892;2023-04-25T13:10:49;7.05;;;4.13;;
47337;SDS011;33069;51.970;5.892;2023-04-25T13:13:15;9.80;;;4.60;;
47337;SDS011;33069;51.970;5.892;2023-04-25T13:15:41;11.73;;;4.50;;
47337;SDS011;33069;51.970;5.892;2023-04-25T13:18:07;10.20;;;4.07;;
47337;SDS011;33069;51.970;5.892;2023-04-25T13:20:33;6.75;;;4.05;;
47337;SDS011;33069;51.970;5.892;2023-04-25T13:22:58;9.82;;;4.00;;
47337;SDS011;33069;51.970;5.892;2023-04-25T13:25:24;9.82;;;6.18;;
47337;SDS011;33069;51.970;5.892;2023-04-25T13:27:50;7.93;;;4.10;;
47337;SDS011;33069;51.970;5.892;2023-04-25T13:30:16;7.57;;;3.75;;
47337;SDS011;33069;51.970;5.892;2023-04-25T13:32:42;8.27;;;3.40;;
47337;SDS011;33069;51.970;5.892;2023-04-25T13:35:09;14.68;;;4.10;;
47337;SDS011;33069;51.970;5.892;2023-04-25T13:37:37;8.13;;;3.40;;
47337;SDS011;33069;51.970;5.892;2023-04-25T13:40:04;12.70;;;4.35;;
47337;SDS011;33069;51.970;5.892;2023-04-25T13:42:35;9.93;;;4.95;;
47337;SDS011;33069;51.970;5.892;2023-04-25T13:45:01;11.68;;;4.30;;
47337;SDS011;33069;51.970;5.892;2023-04-25T13:47:28;7.50;;;5.00;;
47337;SDS011;33069;51.970;5.892;2023-04-25T13:49:55;5.78;;;3.10;;
47337;SDS011;33069;51.970;5.892;2023-04-25T13:52:21;5.25;;;4.07;;
47337;SDS011;33069;51.970;5.892;2023-04-25T13:54:49;5.95;;;3.47;;
47337;SDS011;33069;51.970;5.892;2023-04-25T13:57:15;7.05;;;4.18;;
47337;SDS011;33069;51.970;5.892;2023-04-25T13:59:41;8.13;;;4.60;;
47337;SDS011;33069;51.970;5.892;2023-04-25T14:02:07;12.98;;;4.47;;
47337;SDS011;33069;51.970;5.892;2023-04-25T14:04:33;5.55;;;4.20;;
47337;SDS011;33069;51.970;5.892;2023-04-25T14:06:59;7.57;;;4.55;;
47337;SDS011;33069;51.970;5.892;2023-04-25T14:09:24;9.25;;;4.78;;
47337;SDS011;33069;51.970;5.892;2023-04-25T14:11:52;4.88;;;4.20;;
47337;SDS011;33069;51.970;5.892;2023-04-25T14:14:18;6.97;;;3.95;;
47337;SDS011;33069;51.970;5.892;2023-04-25T14:16:45;12.52;;;8.90;;
47337;SDS011;33069;51.970;5.892;2023-04-25T14:19:13;8.10;;;5.50;;
47337;SDS011;33069;51.970;5.892;2023-04-25T14:21:39;9.70;;;6.28;;
47337;SDS011;33069;51.970;5.892;2023-04-25T14:24:05;10.32;;;6.47;;
47337;SDS011;33069;51.970;5.892;2023-04-25T14:26:33;8.68;;;4.05;;
47337;SDS011;33069;51.970;5.892;2023-04-25T14:29:00;8.77;;;3.83;;
47337;SDS011;33069;51.970;5.892;2023-04-25T14:31:26;6.55;;;3.67;;
47337;SDS011;33069;51.970;5.892;2023-04-25T14:33:53;11.07;;;5.15;;
47337;SDS011;33069;51.970;5.892;2023-04-25T14:36:18;12.25;;;4.63;;
47337;SDS011;33069;51.970;5.892;2023-04-25T14:38:44;6.50;;;4.40;;
47337;SDS011;33069;51.970;5.892;2023-04-25T14:41:10;9.32;;;7.72;;
47337;SDS011;33069;51.970;5.892;2023-04-25T14:43:36;6.32;;;3.70;;
47337;SDS011;33069;51.970;5.892;2023-04-25T14:46:02;5.97;;;3.85;;
47337;SDS011;33069;51.970;5.892;2023-04-25T14:48:28;7.28;;;3.90;;
47337;SDS011;33069;51.970;5.892;2023-04-25T14:50:54;7.35;;;4.35;;
47337;SDS011;33069;51.970;5.892;2023-04-25T14:53:21;6.25;;;4.15;;
47337;SDS011;33069;51.970;5.892;2023-04-25T14:55:47;9.75;;;4.18;;
47337;SDS011;33069;51.970;5.892;2023-04-25T14:58:13;5.90;;;5.25;;
47337;SDS011;33069;51.970;5.892;2023-04-25T15:00:40;8.25;;;5.45;;
47337;SDS011;33069;51.970;5.892;2023-04-25T15:03:05;10.18;;;5.57;;
47337;SDS011;33069;51.970;5.892;2023-04-25T15:05:32;7.47;;;5.25;;
47337;SDS011;33069;51.970;5.892;2023-04-25T15:07:59;9.68;;;6.22;;
47337;SDS011;33069;51.970;5.892;2023-04-25T15:10:25;10.23;;;8.80;;